sensor_id;sensor_type;location;lat;lon;timestamp;pressure;altitude;pressure_sealevel;temperature;humidity
27429;BME280;14881;48.092;11.574;2022-10-31T00:01:27;95936.59;;;7.52;100.00
27429;BME280;14881;48.092;11.574;2022-10-31T00:03:55;95931.53;;;7.60;100.00
27429;BME280;14881;48.092;11.574;2022-10-31T00:06:23;95935.88;;;7.66;100.00
27429;BME280;14881;48.092;11.574;2022-10-31T00:08:52;95931.03;;;7.68;100.00
27429;BME280;14881;48.092;11.574;2022-10-31T00:11:21;95932.09;;;7.67;100.00
27429;BME280;14881;48.092;11.574;2022-10-31T00:13:51;95933.69;;;7.58;100.00
27429;BME280;14881;48.092;11.574;2022-10-31T00:16:20;95931.44;;;7.50;100.00
27429;BME280;14881;48.092;11.574;2022-10-31T00:18:48;95924.91;;;7.41;100.00
27429;BME280;14881;48.092;11.574;2022-10-31T00:21:19;95931.38;;;7.40;100.00
27429;BME280;14881;48.092;11.574;2022-10-31T00:23:47;95931.06;;;7.37;100.00
27429;BME280;14881;48.092;11.574;2022-10-31T00:26:14;95930.56;;;7.40;100.00
27429;BME280;14881;48.092;11.574;2022-10-31T00:28:42;95927.06;;;7.39;100.00
27429;BME280;14881;48.092;11.574;2022-10-31T00:31:12;95920.81;;;7.39;100.00
27429;BME280;14881;48.092;11.574;2022-10-31T00:33:41;95925.41;;;7.38;100.00
27429;BME280;14881;48.092;11.574;2022-10-31T00:36:12;95924.81;;;7.31;100.00
27429;BME280;14881;48.092;11.574;2022-10-31T00:38:40;95925.31;;;7.23;100.00
27429;BME280;14881;48.092;11.574;2022-10-31T00:41:08;95925.25;;;7.18;100.00
27429;BME280;14881;48.092;11.574;2022-10-31T00:43:36;95919.03;;;7.17;100.00
27429;BME280;14881;48.092;11.574;2022-10-31T00:46:04;95915.31;;;7.23;100.00
27429;BME280;14881;48.092;11.574;2022-10-31T00:48:33;95921.03;;;7.27;100.00
27429;BME280;14881;48.092;11.574;2022-10-31T00:51:01;95920.72;;;7.28;100.00
27429;BME280;14881;48.092;11.574;2022-10-31T00:53:29;95919.16;;;7.32;100.00
27429;BME280;14881;48.092;11.574;2022-10-31T00:55:57;95924.28;;;7.34;100.00
27429;BME280;14881;48.092;11.574;2022-10-31T00:58:25;95920.00;;;7.38;100.00
27429;BME280;14881;48.092;11.574;2022-10-31T01:00:54;95916.75;;;7.36;100.00
27429;BME280;14881;48.092;11.574;2022-10-31T01:03:23;95923.47;;;7.33;100.00
27429;BME280;14881;48.092;11.574;2022-10-31T01:06:00;95913.75;;;7.32;100.00
27429;BME280;14881;48.092;11.574;2022-10-31T01:08:31;95916.69;;;7.26;100.00
27429;BME280;14881;48.092;11.574;2022-10-31T01:11:01;95915.81;;;7.20;100.00
27429;BME280;14881;48.092;11.574;2022-10-31T01:13:29;95910.09;;;7.17;100.00
27429;BME280;14881;48.092;11.574;2022-10-31T01:15:57;95914.13;;;7.14;100.00
27429;BME280;14881;48.092;11.574;2022-10-31T01:18:26;95917.06;;;7.08;100.00
27429;BME280;14881;48.092;11.574;2022-10-31T01:21:00;95907.09;;;7.13;100.00
27429;BME280;14881;48.092;11.574;2022-10-31T01:23:28;95917.44;;;7.21;100.00
27429;BME280;14881;48.092;11.574;2022-10-31T01:26:07;95912.91;;;7.27;100.00
27429;BME280;14881;48.092;11.574;2022-10-31T01:28:37;95921.78;;;7.22;100.00
27429;BME280;14881;48.092;11.574;2022-10-31T01:31:07;95919.34;;;7.21;100.00
27429;BME280;14881;48.092;11.574;2022-10-31T01:33:36;95921.69;;;7.12;100.00
27429;BME280;14881;48.092;11.574;2022-10-31T01:36:14;95922.47;;;7.08;100.00
27429;BME280;14881;48.092;11.574;2022-10-31T01:38:44;95925.44;;;7.06;100.00
27429;BME280;14881;48.092;11.574;2022-10-31T01:41:13;95916.03;;;7.14;100.00
27429;BME280;14881;48.092;11.574;2022-10-31T01:43:43;95917.91;;;7.13;100.00
27429;BME280;14881;48.092;11.574;2022-10-31T01:46:11;95915.78;;;7.15;100.00
27429;BME280;14881;48.092;11.574;2022-10-31T01:48:40;95916.00;;;7.09;100.00
27429;BME280;14881;48.092;11.574;2022-10-31T01:51:13;95913.56;;;7.07;100.00
27429;BME280;14881;48.092;11.574;2022-10-31T01:53:43;95913.25;;;7.04;100.00
27429;BME280;14881;48.092;11.574;2022-10-31T01:56:13;95916.19;;;7.02;100.00
27429;BME280;14881;48.092;11.574;2022-10-31T01:58:43;95918.97;;;7.07;100.00
27429;BME280;14881;48.092;11.574;2022-10-31T02:01:14;95917.06;;;7.08;100.00
27429;BME280;14881;48.092;11.574;2022-10-31T02:03:45;95916.81;;;7.09;100.00
27429;BME280;14881;48.092;11.574;2022-10-31T02:06:24;95906.81;;;7.10;100.00
27429;BME280;14881;48.092;11.574;2022-10-31T02:08:56;95906.78;;;7.05;100.00
27429;BME280;14881;48.092;11.574;2022-10-31T02:11:27;95914.63;;;7.06;100.00
27429;BME280;14881;48.092;11.574;2022-10-31T02:13:58;95919.53;;;7.09;100.00
27429;BME280;14881;48.092;11.574;2022-10-31T02:16:26;95912.00;;;7.16;100.00
27429;BME280;14881;48.092;11.574;2022-10-31T02:18:54;95907.91;;;7.14;100.00
27429;BME280;14881;48.092;11.574;2022-10-31T02:21:28;95909.00;;;7.13;100.00
27429;BME280;14881;48.092;11.574;2022-10-31T02:24:35;95912.44;;;7.03;100.00
27429;BME280;14881;48.092;11.574;2022-10-31T02:27:16;95899.75;;;7.04;100.00
27429;BME280;14881;48.092;11.574;2022-10-31T02:30:05;95906.16;;;6.97;100.00
27429;BME280;14881;48.092;11.574;2022-10-31T02:32:42;95908.53;;;6.89;100.00
27429;BME280;14881;48.092;11.574;2022-10-31T02:35:22;95917.44;;;6.89;100.00
27429;BME280;14881;48.092;11.574;2022-10-31T02:37:58;95909.22;;;6.79;100.00
27429;BME280;14881;48.092;11.574;2022-10-31T02:40:33;95922.16;;;6.77;100.00
27429;BME280;14881;48.092;11.574;2022-10-31T02:43:07;95922.97;;;6.73;100.00
27429;BME280;14881;48.092;11.574;2022-10-31T02:45:43;95921.81;;;6.69;100.00
27429;BME280;14881;48.092;11.574;2022-10-31T02:48:19;95924.78;;;6.67;100.00
27429;BME280;14881;48.092;11.574;2022-10-31T02:50:52;95914.47;;;6.64;100.00
27429;BME280;14881;48.092;11.574;2022-10-31T02:53:21;95920.19;;;6.68;100.00
27429;BME280;14881;48.092;11.574;2022-10-31T02:55:53;95917.84;;;6.76;100.00
27429;BME280;14881;48.092;11.574;2022-10-31T02:58:26;95913.06;;;6.83;100.00
27429;BME280;14881;48.092;11.574;2022-10-31T03:01:08;95915.75;;;6.83;100.00
27429;BME280;14881;48.092;11.574;2022-10-31T03:03:46;95906.53;;;6.79;100.00
27429;BME280;14881;48.092;11.574;2022-10-31T03:06:24;95911.13;;;6.79;100.00
27429;BME280;14881;48.092;11.574;2022-10-31T03:08:59;95917.00;;;6.71;100.00
27429;BME280;14881;48.092;11.574;2022-10-31T03:11:31;95914.16;;;6.60;100.00
27429;BME280;14881;48.092;11.574;2022-10-31T03:14:06;95914.94;;;6.56;100.00
27429;BME280;14881;48.092;11.574;2022-10-31T03:16:37;95915.72;;;6.51;100.00
27429;BME280;14881;48.092;11.574;2022-10-31T03:19:16;95912.69;;;6.48;100.00
27429;BME280;14881;48.092;11.574;2022-10-31T03:21:50;95913.25;;;6.50;100.00
27429;BME280;14881;48.092;11.574;2022-10-31T03:24:20;95919.47;;;6.50;100.00
27429;BME280;14881;48.092;11.574;2022-10-31T03:26:53;95923.19;;;6.44;100.00
27429;BME280;14881;48.092;11.574;2022-10-31T03:29:25;95918.84;;;6.43;100.00
27429;BME280;14881;48.092;11.574;2022-10-31T03:31:56;95923.69;;;6.41;100.00
27429;BME280;14881;48.092;11.574;2022-10-31T03:34:28;95919.91;;;6.42;100.00
27429;BME280;14881;48.092;11.574;2022-10-31T03:37:00;95918.25;;;6.36;100.00
27429;BME280;14881;48.092;11.574;2022-10-31T03:39:29;95922.00;;;6.35;100.00
27429;BME280;14881;48.092;11.574;2022-10-31T03:42:09;95923.56;;;6.31;100.00
27429;BME280;14881;48.092;11.574;2022-10-31T03:44:41;95920.13;;;6.36;100.00
27429;BME280;14881;48.092;11.574;2022-10-31T03:47:10;95914.66;;;6.31;100.00
27429;BME280;14881;48.092;11.574;2022-10-31T03:49:40;95919.75;;;6.27;100.00
27429;BME280;14881;48.092;11.574;2022-10-31T03:52:13;95923.72;;;6.19;100.00
27429;BME280;14881;48.092;11.574;2022-10-31T03:54:44;95923.22;;;6.22;100.00
27429;BME280;14881;48.092;11.574;2022-10-31T03:57:16;95915.94;;;6.23;100.00
27429;BME280;14881;48.092;11.574;2022-10-31T03:59:50;95916.44;;;6.20;100.00
27429;BME280;14881;48.092;11.574;2022-10-31T04:02:22;95923.75;;;6.24;100.00
27429;BME280;14881;48.092;11.574;2022-10-31T04:04:55;95917.50;;;6.19;100.00
27429;BME280;14881;48.092;11.574;2022-10-31T04:07:26;95919.41;;;6.23;100.00
27429;BME280;14881;48.092;11.574;2022-10-31T04:09:57;95905.41;;;6.21;100.00
27429;BME280;14881;48.092;11.574;2022-10-31T04:12:26;95916.44;;;6.20;100.00
27429;BME280;14881;48.092;11.574;2022-10-31T04:14:56;95922.25;;;6.12;100.00
27429;BME280;14881;48.092;11.574;2022-10-31T04:17:27;95921.66;;;6.05;100.00
27429;BME280;14881;48.092;11.574;2022-10-31T04:20:00;95920.31;;;6.07;100.00
27429;BME280;14881;48.092;11.574;2022-10-31T04:22:28;95924.03;;;6.01;100.00
27429;BME280;14881;48.092;11.574;2022-10-31T04:24:58;95912.28;;;6.12;100.00
27429;BME280;14881;48.092;11.574;2022-10-31T04:27:25;95923.28;;;6.06;100.00
27429;BME280;14881;48.092;11.574;2022-10-31T04:29:53;95923.56;;;6.09;100.00
27429;BME280;14881;48.092;11.574;2022-10-31T04:32:21;95929.78;;;6.10;100.00
27429;BME280;14881;48.092;11.574;2022-10-31T04:34:48;95924.88;;;6.07;100.00
27429;BME280;14881;48.092;11.574;2022-10-31T04:37:17;95926.03;;;6.11;100.00
27429;BME280;14881;48.092;11.574;2022-10-31T04:39:45;95928.09;;;6.04;100.00
27429;BME280;14881;48.092;11.574;2022-10-31T04:42:12;95933.50;;;6.04;100.00
27429;BME280;14881;48.092;11.574;2022-10-31T04:44:40;95927.97;;;5.93;100.00
27429;BME280;14881;48.092;11.574;2022-10-31T04:47:08;95932.03;;;5.96;100.00
27429;BME280;14881;48.092;11.574;2022-10-31T04:49:35;95922.41;;;6.00;100.00
27429;BME280;14881;48.092;11.574;2022-10-31T04:52:04;95926.56;;;5.91;100.00
27429;BME280;14881;48.092;11.574;2022-10-31T04:54:32;95928.78;;;5.94;100.00
27429;BME280;14881;48.092;11.574;2022-10-31T04:57:00;95932.28;;;5.94;100.00
27429;BME280;14881;48.092;11.574;2022-10-31T04:59:28;95927.31;;;5.86;100.00
27429;BME280;14881;48.092;11.574;2022-10-31T05:01:56;95933.84;;;5.90;100.00
27429;BME280;14881;48.092;11.574;2022-10-31T05:04:23;95929.59;;;5.94;100.00
27429;BME280;14881;48.092;11.574;2022-10-31T05:06:51;95929.19;;;5.86;100.00
27429;BME280;14881;48.092;11.574;2022-10-31T05:09:19;95922.34;;;5.78;100.00
27429;BME280;14881;48.092;11.574;2022-10-31T05:11:48;95917.75;;;5.79;100.00
27429;BME280;14881;48.092;11.574;2022-10-31T05:14:15;95923.88;;;5.74;100.00
27429;BME280;14881;48.092;11.574;2022-10-31T05:16:46;95929.53;;;5.73;100.00
27429;BME280;14881;48.092;11.574;2022-10-31T05:19:13;95924.41;;;5.71;100.00
27429;BME280;14881;48.092;11.574;2022-10-31T05:21:41;95916.25;;;5.66;100.00
27429;BME280;14881;48.092;11.574;2022-10-31T05:24:11;95917.38;;;5.70;100.00
27429;BME280;14881;48.092;11.574;2022-10-31T05:26:41;95920.63;;;5.72;100.00
27429;BME280;14881;48.092;11.574;2022-10-31T05:29:10;95917.31;;;5.65;100.00
27429;BME280;14881;48.092;11.574;2022-10-31T05:31:38;95914.94;;;5.69;100.00
27429;BME280;14881;48.092;11.574;2022-10-31T05:34:05;95908.47;;;5.70;100.00
27429;BME280;14881;48.092;11.574;2022-10-31T05:36:33;95914.13;;;5.68;100.00
27429;BME280;14881;48.092;11.574;2022-10-31T05:39:01;95914.03;;;5.63;100.00
27429;BME280;14881;48.092;11.574;2022-10-31T05:41:28;95913.97;;;5.58;100.00
27429;BME280;14881;48.092;11.574;2022-10-31T05:43:56;95909.34;;;5.53;100.00
27429;BME280;14881;48.092;11.574;2022-10-31T05:46:25;95912.75;;;5.49;100.00
27429;BME280;14881;48.092;11.574;2022-10-31T05:48:53;95910.63;;;5.51;100.00
27429;BME280;14881;48.092;11.574;2022-10-31T05:51:27;95906.31;;;5.50;100.00
27429;BME280;14881;48.092;11.574;2022-10-31T05:53:54;95906.97;;;5.40;100.00
27429;BME280;14881;48.092;11.574;2022-10-31T05:56:22;95907.44;;;5.37;100.00
27429;BME280;14881;48.092;11.574;2022-10-31T05:58:49;95906.09;;;5.35;100.00
27429;BME280;14881;48.092;11.574;2022-10-31T06:01:17;95912.22;;;5.30;100.00
27429;BME280;14881;48.092;11.574;2022-10-31T06:03:48;95911.63;;;5.28;100.00
27429;BME280;14881;48.092;11.574;2022-10-31T06:06:16;95909.75;;;5.29;100.00
27429;BME280;14881;48.092;11.574;2022-10-31T06:08:48;95914.81;;;5.25;100.00
27429;BME280;14881;48.092;11.574;2022-10-31T06:11:16;95909.75;;;5.29;100.00
27429;BME280;14881;48.092;11.574;2022-10-31T06:13:44;95919.16;;;5.26;100.00
27429;BME280;14881;48.092;11.574;2022-10-31T06:16:11;95917.28;;;5.27;100.00
27429;BME280;14881;48.092;11.574;2022-10-31T06:18:39;95917.69;;;5.35;100.00
27429;BME280;14881;48.092;11.574;2022-10-31T06:21:08;95924.13;;;5.34;100.00
27429;BME280;14881;48.092;11.574;2022-10-31T06:23:40;95922.06;;;5.41;100.00
27429;BME280;14881;48.092;11.574;2022-10-31T06:26:07;95921.91;;;5.48;100.00
27429;BME280;14881;48.092;11.574;2022-10-31T06:28:35;95927.28;;;5.48;100.00
27429;BME280;14881;48.092;11.574;2022-10-31T06:31:03;95925.19;;;5.50;100.00
27429;BME280;14881;48.092;11.574;2022-10-31T06:33:30;95925.41;;;5.48;100.00
27429;BME280;14881;48.092;11.574;2022-10-31T06:35:58;95919.28;;;5.53;100.00
27429;BME280;14881;48.092;11.574;2022-10-31T06:38:27;95917.47;;;5.58;100.00
27429;BME280;14881;48.092;11.574;2022-10-31T06:41:01;95916.81;;;5.68;100.00
27429;BME280;14881;48.092;11.574;2022-10-31T06:43:29;95920.91;;;5.71;100.00
27429;BME280;14881;48.092;11.574;2022-10-31T06:45:57;95920.69;;;5.77;100.00
27429;BME280;14881;48.092;11.574;2022-10-31T06:48:25;95926.91;;;5.78;100.00
27429;BME280;14881;48.092;11.574;2022-10-31T06:50:52;95907.88;;;5.84;100.00
27429;BME280;14881;48.092;11.574;2022-10-31T06:53:26;95909.81;;;5.89;100.00
27429;BME280;14881;48.092;11.574;2022-10-31T06:55:58;95908.00;;;5.94;100.00
27429;BME280;14881;48.092;11.574;2022-10-31T06:58:25;95911.34;;;6.02;100.00
27429;BME280;14881;48.092;11.574;2022-10-31T07:00:53;95913.59;;;6.10;100.00
27429;BME280;14881;48.092;11.574;2022-10-31T07:03:21;95918.25;;;6.14;100.00
27429;BME280;14881;48.092;11.574;2022-10-31T07:05:48;95910.47;;;6.18;100.00
27429;BME280;14881;48.092;11.574;2022-10-31T07:08:16;95918.09;;;6.26;100.00
27429;BME280;14881;48.092;11.574;2022-10-31T07:10:51;95920.63;;;6.33;100.00
27429;BME280;14881;48.092;11.574;2022-10-31T07:13:19;95925.06;;;6.44;100.00
27429;BME280;14881;48.092;11.574;2022-10-31T07:15:54;95923.25;;;6.49;100.00
27429;BME280;14881;48.092;11.574;2022-10-31T07:18:22;95924.72;;;6.62;100.00
27429;BME280;14881;48.092;11.574;2022-10-31T07:20:51;95927.22;;;6.69;100.00
27429;BME280;14881;48.092;11.574;2022-10-31T07:23:18;95918.97;;;6.80;100.00
27429;BME280;14881;48.092;11.574;2022-10-31T07:25:47;95920.16;;;6.94;100.00
27429;BME280;14881;48.092;11.574;2022-10-31T07:28:15;95919.22;;;7.06;100.00
27429;BME280;14881;48.092;11.574;2022-10-31T07:30:43;95917.69;;;7.20;100.00
27429;BME280;14881;48.092;11.574;2022-10-31T07:33:10;95924.00;;;7.30;100.00
27429;BME280;14881;48.092;11.574;2022-10-31T07:35:38;95917.34;;;7.43;100.00
27429;BME280;14881;48.092;11.574;2022-10-31T07:38:07;95918.19;;;7.49;100.00
27429;BME280;14881;48.092;11.574;2022-10-31T07:40:35;95909.34;;;7.58;100.00
27429;BME280;14881;48.092;11.574;2022-10-31T07:43:04;95917.03;;;7.77;100.00
27429;BME280;14881;48.092;11.574;2022-10-31T07:45:38;95918.19;;;7.91;100.00
27429;BME280;14881;48.092;11.574;2022-10-31T07:48:06;95909.06;;;8.07;100.00
27429;BME280;14881;48.092;11.574;2022-10-31T07:50:35;95901.56;;;8.24;100.00
27429;BME280;14881;48.092;11.574;2022-10-31T07:53:04;95900.59;;;8.46;100.00
27429;BME280;14881;48.092;11.574;2022-10-31T07:55:33;95908.22;;;8.69;100.00
27429;BME280;14881;48.092;11.574;2022-10-31T07:58:02;95901.19;;;8.83;100.00
27429;BME280;14881;48.092;11.574;2022-10-31T08:00:32;95903.97;;;8.98;100.00
27429;BME280;14881;48.092;11.574;2022-10-31T08:03:02;95900.44;;;9.13;100.00
27429;BME280;14881;48.092;11.574;2022-10-31T08:05:31;95896.94;;;9.33;100.00
27429;BME280;14881;48.092;11.574;2022-10-31T08:08:00;95899.31;;;9.55;100.00
27429;BME280;14881;48.092;11.574;2022-10-31T08:10:28;95891.44;;;9.73;100.00
27429;BME280;14881;48.092;11.574;2022-10-31T08:12:57;95891.66;;;9.97;100.00
27429;BME280;14881;48.092;11.574;2022-10-31T08:15:25;95888.59;;;10.24;100.00
27429;BME280;14881;48.092;11.574;2022-10-31T08:17:55;95886.31;;;10.52;100.00
27429;BME280;14881;48.092;11.574;2022-10-31T08:20:23;95884.22;;;10.82;100.00
27429;BME280;14881;48.092;11.574;2022-10-31T08:22:55;95872.03;;;11.14;100.00
27429;BME280;14881;48.092;11.574;2022-10-31T08:25:23;95870.13;;;11.48;100.00
27429;BME280;14881;48.092;11.574;2022-10-31T08:27:52;95862.41;;;11.90;100.00
27429;BME280;14881;48.092;11.574;2022-10-31T08:30:21;95860.88;;;12.26;100.00
27429;BME280;14881;48.092;11.574;2022-10-31T08:32:59;95850.03;;;12.64;100.00
27429;BME280;14881;48.092;11.574;2022-10-31T08:35:28;95848.72;;;12.99;100.00
27429;BME280;14881;48.092;11.574;2022-10-31T08:37:56;95842.22;;;13.32;100.00
27429;BME280;14881;48.092;11.574;2022-10-31T08:40:26;95839.47;;;13.65;100.00
27429;BME280;14881;48.092;11.574;2022-10-31T08:42:58;95833.50;;;13.90;100.00
27429;BME280;14881;48.092;11.574;2022-10-31T08:45:26;95830.28;;;14.15;100.00
27429;BME280;14881;48.092;11.574;2022-10-31T08:47:59;95828.13;;;14.40;100.00
27429;BME280;14881;48.092;11.574;2022-10-31T08:50:30;95831.56;;;14.59;100.00
27429;BME280;14881;48.092;11.574;2022-10-31T08:53:01;95829.63;;;14.73;100.00
27429;BME280;14881;48.092;11.574;2022-10-31T08:55:33;95816.59;;;14.92;100.00
27429;BME280;14881;48.092;11.574;2022-10-31T08:58:04;95816.94;;;15.13;100.00
27429;BME280;14881;48.092;11.574;2022-10-31T09:00:32;95810.19;;;15.42;100.00
27429;BME280;14881;48.092;11.574;2022-10-31T09:03:03;95816.63;;;15.59;100.00
27429;BME280;14881;48.092;11.574;2022-10-31T09:05:31;95807.34;;;15.69;100.00
27429;BME280;14881;48.092;11.574;2022-10-31T09:08:00;95805.34;;;15.92;100.00
27429;BME280;14881;48.092;11.574;2022-10-31T09:10:33;95799.16;;;16.17;100.00
27429;BME280;14881;48.092;11.574;2022-10-31T09:13:03;95790.19;;;16.43;100.00
27429;BME280;14881;48.092;11.574;2022-10-31T09:15:33;95791.56;;;16.71;100.00
27429;BME280;14881;48.092;11.574;2022-10-31T09:18:03;95787.38;;;16.91;100.00
27429;BME280;14881;48.092;11.574;2022-10-31T09:20:32;95778.97;;;17.13;100.00
27429;BME280;14881;48.092;11.574;2022-10-31T09:23:02;95774.75;;;17.24;100.00
27429;BME280;14881;48.092;11.574;2022-10-31T09:25:30;95773.59;;;17.34;100.00
27429;BME280;14881;48.092;11.574;2022-10-31T09:27:58;95766.13;;;17.52;100.00
27429;BME280;14881;48.092;11.574;2022-10-31T09:30:28;95772.72;;;17.77;100.00
27429;BME280;14881;48.092;11.574;2022-10-31T09:32:57;95782.50;;;17.95;100.00
27429;BME280;14881;48.092;11.574;2022-10-31T09:35:27;95772.66;;;18.23;100.00
27429;BME280;14881;48.092;11.574;2022-10-31T09:37:55;95769.25;;;18.56;100.00
27429;BME280;14881;48.092;11.574;2022-10-31T09:40:29;95767.75;;;18.88;100.00
27429;BME280;14881;48.092;11.574;2022-10-31T09:43:03;95755.84;;;19.17;100.00
27429;BME280;14881;48.092;11.574;2022-10-31T09:45:40;95754.06;;;19.66;100.00
27429;BME280;14881;48.092;11.574;2022-10-31T09:48:20;95755.63;;;20.12;100.00
27429;BME280;14881;48.092;11.574;2022-10-31T09:50:54;95754.47;;;20.13;100.00
27429;BME280;14881;48.092;11.574;2022-10-31T09:53:32;95748.25;;;19.92;100.00
27429;BME280;14881;48.092;11.574;2022-10-31T09:56:02;95751.25;;;19.87;100.00
27429;BME280;14881;48.092;11.574;2022-10-31T09:58:37;95745.41;;;20.00;100.00
27429;BME280;14881;48.092;11.574;2022-10-31T10:01:23;95733.69;;;19.91;100.00
27429;BME280;14881;48.092;11.574;2022-10-31T10:03:58;95737.13;;;20.00;100.00
27429;BME280;14881;48.092;11.574;2022-10-31T10:06:34;95742.03;;;19.95;100.00
27429;BME280;14881;48.092;11.574;2022-10-31T10:09:03;95740.22;;;19.87;100.00
27429;BME280;14881;48.092;11.574;2022-10-31T10:11:40;95744.03;;;20.06;100.00
27429;BME280;14881;48.092;11.574;2022-10-31T10:14:21;95729.53;;;20.34;100.00
27429;BME280;14881;48.092;11.574;2022-10-31T10:17:11;95739.94;;;20.89;100.00
27429;BME280;14881;48.092;11.574;2022-10-31T10:19:59;95740.28;;;21.28;100.00
27429;BME280;14881;48.092;11.574;2022-10-31T10:22:47;95734.44;;;21.45;100.00
27429;BME280;14881;48.092;11.574;2022-10-31T10:25:21;95721.84;;;21.47;100.00
27429;BME280;14881;48.092;11.574;2022-10-31T10:28:02;95723.84;;;21.47;100.00
27429;BME280;14881;48.092;11.574;2022-10-31T10:30:39;95720.00;;;21.51;100.00
27429;BME280;14881;48.092;11.574;2022-10-31T10:33:11;95727.44;;;21.63;100.00
27429;BME280;14881;48.092;11.574;2022-10-31T10:35:42;95718.47;;;21.54;100.00
27429;BME280;14881;48.092;11.574;2022-10-31T10:38:18;95719.41;;;21.30;100.00
27429;BME280;14881;48.092;11.574;2022-10-31T10:40:47;95720.94;;;21.28;100.00
27429;BME280;14881;48.092;11.574;2022-10-31T10:43:22;95713.00;;;21.14;100.00
27429;BME280;14881;48.092;11.574;2022-10-31T10:45:56;95715.25;;;20.96;100.00
27429;BME280;14881;48.092;11.574;2022-10-31T10:48:49;95723.97;;;20.70;100.00
27429;BME280;14881;48.092;11.574;2022-10-31T10:51:21;95709.41;;;20.58;100.00
27429;BME280;14881;48.092;11.574;2022-10-31T10:54:33;95713.78;;;20.46;100.00
27429;BME280;14881;48.092;11.574;2022-10-31T10:57:13;95701.56;;;20.35;100.00
27429;BME280;14881;48.092;11.574;2022-10-31T10:59:47;95704.44;;;20.27;100.00
27429;BME280;14881;48.092;11.574;2022-10-31T11:02:17;95703.66;;;20.14;100.00
27429;BME280;14881;48.092;11.574;2022-10-31T11:04:49;95701.50;;;20.07;100.00
27429;BME280;14881;48.092;11.574;2022-10-31T11:07:18;95692.16;;;20.12;100.00
27429;BME280;14881;48.092;11.574;2022-10-31T11:09:47;95696.53;;;20.25;100.00
27429;BME280;14881;48.092;11.574;2022-10-31T11:12:22;95685.28;;;20.42;100.00
27429;BME280;14881;48.092;11.574;2022-10-31T11:14:54;95675.91;;;20.59;100.00
27429;BME280;14881;48.092;11.574;2022-10-31T11:17:28;95684.41;;;20.66;100.00
27429;BME280;14881;48.092;11.574;2022-10-31T11:20:01;95678.63;;;20.99;100.00
27429;BME280;14881;48.092;11.574;2022-10-31T11:22:30;95680.91;;;21.37;100.00
27429;BME280;14881;48.092;11.574;2022-10-31T11:24:59;95679.69;;;21.82;100.00
27429;BME280;14881;48.092;11.574;2022-10-31T11:27:26;95681.31;;;22.14;100.00
27429;BME280;14881;48.092;11.574;2022-10-31T11:30:05;95670.34;;;22.72;100.00
27429;BME280;14881;48.092;11.574;2022-10-31T11:32:33;95666.06;;;22.94;100.00
27429;BME280;14881;48.092;11.574;2022-10-31T11:35:02;95666.34;;;23.08;100.00
27429;BME280;14881;48.092;11.574;2022-10-31T11:37:41;95659.47;;;23.21;100.00
27429;BME280;14881;48.092;11.574;2022-10-31T11:40:18;95646.91;;;23.47;99.85
27429;BME280;14881;48.092;11.574;2022-10-31T11:42:47;95651.88;;;23.38;100.00
27429;BME280;14881;48.092;11.574;2022-10-31T11:45:17;95652.91;;;23.30;100.00
27429;BME280;14881;48.092;11.574;2022-10-31T11:47:47;95649.47;;;23.36;100.00
27429;BME280;14881;48.092;11.574;2022-10-31T11:50:25;95645.31;;;23.26;100.00
27429;BME280;14881;48.092;11.574;2022-10-31T11:52:54;95641.41;;;23.08;97.39
27429;BME280;14881;48.092;11.574;2022-10-31T11:55:32;95645.44;;;23.11;100.00
27429;BME280;14881;48.092;11.574;2022-10-31T11:58:00;95631.88;;;22.86;99.54
27429;BME280;14881;48.092;11.574;2022-10-31T12:00:30;95634.88;;;22.78;98.39
27429;BME280;14881;48.092;11.574;2022-10-31T12:03:15;95637.81;;;22.50;100.00
27429;BME280;14881;48.092;11.574;2022-10-31T12:05:53;95633.16;;;22.19;100.00
27429;BME280;14881;48.092;11.574;2022-10-31T12:08:21;95625.97;;;21.67;100.00
27429;BME280;14881;48.092;11.574;2022-10-31T12:10:58;95630.34;;;21.52;100.00
27429;BME280;14881;48.092;11.574;2022-10-31T12:13:33;95624.09;;;21.24;100.00
27429;BME280;14881;48.092;11.574;2022-10-31T12:16:06;95622.03;;;20.93;100.00
27429;BME280;14881;48.092;11.574;2022-10-31T12:18:57;95627.06;;;20.75;100.00
27429;BME280;14881;48.092;11.574;2022-10-31T12:21:41;95620.59;;;20.56;100.00
27429;BME280;14881;48.092;11.574;2022-10-31T12:24:21;95626.38;;;20.38;100.00
27429;BME280;14881;48.092;11.574;2022-10-31T12:27:14;95614.91;;;20.36;100.00
27429;BME280;14881;48.092;11.574;2022-10-31T12:29:59;95610.03;;;20.33;100.00
27429;BME280;14881;48.092;11.574;2022-10-31T12:32:38;95623.97;;;20.25;100.00
27429;BME280;14881;48.092;11.574;2022-10-31T12:35:22;95614.41;;;20.34;100.00
27429;BME280;14881;48.092;11.574;2022-10-31T12:38:03;95600.50;;;20.43;100.00
27429;BME280;14881;48.092;11.574;2022-10-31T12:40:49;95608.78;;;20.43;100.00
27429;BME280;14881;48.092;11.574;2022-10-31T12:43:32;95600.94;;;20.45;100.00
27429;BME280;14881;48.092;11.574;2022-10-31T12:46:02;95592.72;;;20.61;100.00
27429;BME280;14881;48.092;11.574;2022-10-31T12:48:49;95603.72;;;20.73;100.00
27429;BME280;14881;48.092;11.574;2022-10-31T12:51:31;95599.47;;;20.75;100.00
27429;BME280;14881;48.092;11.574;2022-10-31T12:54:21;95593.31;;;20.82;100.00
27429;BME280;14881;48.092;11.574;2022-10-31T12:56:58;95584.53;;;20.92;100.00
27429;BME280;14881;48.092;11.574;2022-10-31T12:59:33;95581.31;;;20.90;100.00
27429;BME280;14881;48.092;11.574;2022-10-31T13:02:12;95570.72;;;20.92;100.00
27429;BME280;14881;48.092;11.574;2022-10-31T13:04:46;95570.00;;;20.95;100.00
27429;BME280;14881;48.092;11.574;2022-10-31T13:07:18;95568.56;;;21.01;100.00
27429;BME280;14881;48.092;11.574;2022-10-31T13:09:53;95566.69;;;20.90;100.00